sensor_id;sensor_type;location;lat;lon;timestamp;pressure;altitude;pressure_sealevel;temperature;humidity
48774;BME280;34576;0.000;0.000;2024-03-25T00:03:46;96075.16;;;17.45;62.07
48774;BME280;34576;0.000;0.000;2024-03-25T00:10:48;96076.72;;;17.46;62.25
48774;BME280;34576;0.000;0.000;2024-03-25T00:17:50;96067.38;;;17.48;62.60
48774;BME280;34576;0.000;0.000;2024-03-25T00:24:51;96071.13;;;17.47;63.27
48774;BME280;34576;0.000;0.000;2024-03-25T00:31:54;96061.00;;;17.49;63.53
48774;BME280;34576;0.000;0.000;2024-03-25T00:38:56;96054.09;;;17.48;64.04
48774;BME280;34576;0.000;0.000;2024-03-25T00:46:00;96048.78;;;17.48;64.28
48774;BME280;34576;0.000;0.000;2024-03-25T00:53:05;96043.16;;;17.50;64.76
48774;BME280;34576;0.000;0.000;2024-03-25T01:00:21;96041.31;;;17.50;65.34
48774;BME280;34576;0.000;0.000;2024-03-25T01:07:21;96039.94;;;17.53;65.50
48774;BME280;34576;0.000;0.000;2024-03-25T01:14:21;96030.88;;;17.54;65.68
48774;BME280;34576;0.000;0.000;2024-03-25T01:21:22;96028.38;;;17.63;66.32
48774;BME280;34576;0.000;0.000;2024-03-25T01:28:22;96019.38;;;17.58;65.35
48774;BME280;34576;0.000;0.000;2024-03-25T01:35:22;96006.16;;;17.53;65.30
48774;BME280;34576;0.000;0.000;2024-03-25T01:42:23;96001.16;;;17.52;65.70
48774;BME280;34576;0.000;0.000;2024-03-25T01:49:23;95995.53;;;17.53;65.69
48774;BME280;34576;0.000;0.000;2024-03-25T01:56:24;95990.13;;;17.58;65.75
48774;BME280;34576;0.000;0.000;2024-03-25T02:03:24;95990.72;;;17.55;65.54
48774;BME280;34576;0.000;0.000;2024-03-25T02:10:25;95982.44;;;17.57;65.19
48774;BME280;34576;0.000;0.000;2024-03-25T02:17:25;95981.66;;;17.56;65.62
48774;BME280;34576;0.000;0.000;2024-03-25T02:24:26;95976.34;;;17.56;65.99
48774;BME280;34576;0.000;0.000;2024-03-25T02:31:26;95967.56;;;17.56;66.08
48774;BME280;34576;0.000;0.000;2024-03-25T02:38:27;95973.69;;;17.56;65.38
48774;BME280;34576;0.000;0.000;2024-03-25T02:45:27;95971.03;;;17.56;65.89
48774;BME280;34576;0.000;0.000;2024-03-25T02:52:28;95965.13;;;17.59;65.74
48774;BME280;34576;0.000;0.000;2024-03-25T02:59:28;95973.69;;;17.56;65.11
48774;BME280;34576;0.000;0.000;2024-03-25T03:06:28;95968.38;;;17.56;64.75
48774;BME280;34576;0.000;0.000;2024-03-25T03:13:29;95971.59;;;17.53;65.00
48774;BME280;34576;0.000;0.000;2024-03-25T03:20:29;95973.97;;;17.55;65.28
48774;BME280;34576;0.000;0.000;2024-03-25T03:27:29;95958.00;;;17.55;65.37
48774;BME280;34576;0.000;0.000;2024-03-25T03:34:30;95956.13;;;17.55;65.92
48774;BME280;34576;0.000;0.000;2024-03-25T03:41:30;95950.16;;;17.64;65.71
48774;BME280;34576;0.000;0.000;2024-03-25T03:48:31;95950.53;;;17.57;65.56
48774;BME280;34576;0.000;0.000;2024-03-25T03:55:31;95953.47;;;17.55;65.75
48774;BME280;34576;0.000;0.000;2024-03-25T04:02:31;95955.06;;;17.56;65.82
48774;BME280;34576;0.000;0.000;2024-03-25T04:09:32;95950.53;;;17.57;65.71
48774;BME280;34576;0.000;0.000;2024-03-25T04:16:33;95940.19;;;17.55;66.12
48774;BME280;34576;0.000;0.000;2024-03-25T04:23:33;95945.50;;;17.55;65.87
48774;BME280;34576;0.000;0.000;2024-03-25T04:30:33;95934.38;;;17.53;66.01
48774;BME280;34576;0.000;0.000;2024-03-25T04:37:34;95926.59;;;17.57;66.14
48774;BME280;34576;0.000;0.000;2024-03-25T04:44:35;95908.28;;;17.55;66.28
48774;BME280;34576;0.000;0.000;2024-03-25T04:51:36;95907.19;;;17.56;66.34
48774;BME280;34576;0.000;0.000;2024-03-25T04:58:36;95906.03;;;17.63;66.52
48774;BME280;34576;0.000;0.000;2024-03-25T05:05:37;95900.72;;;17.63;66.52
48774;BME280;34576;0.000;0.000;2024-03-25T05:12:38;95903.16;;;17.59;66.66
48774;BME280;34576;0.000;0.000;2024-03-25T05:19:38;95905.72;;;17.64;66.97
48774;BME280;34576;0.000;0.000;2024-03-25T05:26:39;95908.19;;;17.60;66.91
48774;BME280;34576;0.000;0.000;2024-03-25T05:33:39;95906.63;;;17.59;66.56
48774;BME280;34576;0.000;0.000;2024-03-25T05:40:39;95907.50;;;17.55;67.07
48774;BME280;34576;0.000;0.000;2024-03-25T05:47:39;95917.34;;;17.54;66.86
48774;BME280;34576;0.000;0.000;2024-03-25T05:54:40;95917.84;;;17.56;66.76
48774;BME280;34576;0.000;0.000;2024-03-25T06:01:41;95924.03;;;17.52;66.66
48774;BME280;34576;0.000;0.000;2024-03-25T06:08:41;95925.47;;;17.44;66.70
48774;BME280;34576;0.000;0.000;2024-03-25T06:15:41;95912.84;;;17.36;66.72
48774;BME280;34576;0.000;0.000;2024-03-25T06:22:41;95924.03;;;17.33;66.54
48774;BME280;34576;0.000;0.000;2024-03-25T06:29:42;95907.09;;;17.29;66.39
48774;BME280;34576;0.000;0.000;2024-03-25T06:36:44;95902.78;;;17.33;66.38
48774;BME280;34576;0.000;0.000;2024-03-25T06:43:44;95887.63;;;17.33;65.98
48774;BME280;34576;0.000;0.000;2024-03-25T06:50:57;95880.25;;;17.30;65.82
48774;BME280;34576;0.000;0.000;2024-03-25T06:57:58;95869.44;;;17.21;66.15
48774;BME280;34576;0.000;0.000;2024-03-25T07:04:58;95869.97;;;17.23;65.71
48774;BME280;34576;0.000;0.000;2024-03-25T07:11:58;95860.91;;;17.24;65.53
48774;BME280;34576;0.000;0.000;2024-03-25T07:18:59;95845.81;;;17.20;65.96
48774;BME280;34576;0.000;0.000;2024-03-25T07:26:00;95839.84;;;17.28;65.79
48774;BME280;34576;0.000;0.000;2024-03-25T07:33:00;95832.63;;;17.15;58.99
48774;BME280;34576;0.000;0.000;2024-03-25T07:40:00;95844.03;;;13.61;53.29
48774;BME280;34576;0.000;0.000;2024-03-25T07:47:01;95833.19;;;13.17;51.66
48774;BME280;34576;0.000;0.000;2024-03-25T07:54:01;95824.25;;;13.12;51.33
48774;BME280;34576;0.000;0.000;2024-03-25T08:01:03;95829.78;;;13.06;51.45
48774;BME280;34576;0.000;0.000;2024-03-25T08:08:04;95808.41;;;13.38;49.99
48774;BME280;34576;0.000;0.000;2024-03-25T08:15:05;95810.75;;;13.66;50.65
48774;BME280;34576;0.000;0.000;2024-03-25T08:22:05;95800.72;;;13.62;49.97
48774;BME280;34576;0.000;0.000;2024-03-25T08:29:05;95789.66;;;12.88;50.70
48774;BME280;34576;0.000;0.000;2024-03-25T08:36:06;95779.88;;;13.15;49.16
48774;BME280;34576;0.000;0.000;2024-03-25T08:43:06;95773.53;;;12.85;48.68
48774;BME280;34576;0.000;0.000;2024-03-25T08:50:07;95763.22;;;13.04;46.88
48774;BME280;34576;0.000;0.000;2024-03-25T08:57:07;95746.63;;;12.93;46.24
48774;BME280;34576;0.000;0.000;2024-03-25T09:04:07;95747.66;;;13.07;44.86
48774;BME280;34576;0.000;0.000;2024-03-25T09:11:08;95738.69;;;13.19;44.53
48774;BME280;34576;0.000;0.000;2024-03-25T09:18:09;95735.75;;;13.15;43.00
48774;BME280;34576;0.000;0.000;2024-03-25T09:25:09;95729.13;;;13.33;41.99
48774;BME280;34576;0.000;0.000;2024-03-25T09:32:10;95721.97;;;13.49;40.61
48774;BME280;34576;0.000;0.000;2024-03-25T09:39:10;95711.81;;;13.87;41.81
48774;BME280;34576;0.000;0.000;2024-03-25T09:46:10;95697.75;;;15.35;44.03
48774;BME280;34576;0.000;0.000;2024-03-25T09:53:11;95687.41;;;15.58;47.67
48774;BME280;34576;0.000;0.000;2024-03-25T10:00:11;95667.63;;;15.69;48.54
48774;BME280;34576;0.000;0.000;2024-03-25T10:07:21;95664.91;;;15.79;49.62
48774;BME280;34576;0.000;0.000;2024-03-25T10:14:21;95647.28;;;15.88;50.49
48774;BME280;34576;0.000;0.000;2024-03-25T10:21:22;95632.31;;;15.98;51.14
48774;BME280;34576;0.000;0.000;2024-03-25T10:28:22;95623.97;;;16.04;51.75
48774;BME280;34576;0.000;0.000;2024-03-25T10:35:23;95608.22;;;16.13;52.18
48774;BME280;34576;0.000;0.000;2024-03-25T10:42:26;95588.97;;;16.21;52.69
48774;BME280;34576;0.000;0.000;2024-03-25T10:49:32;95573.44;;;16.29;52.85
48774;BME280;34576;0.000;0.000;2024-03-25T10:56:32;95547.13;;;16.32;53.34
48774;BME280;34576;0.000;0.000;2024-03-25T11:03:33;95539.88;;;16.38;53.77
48774;BME280;34576;0.000;0.000;2024-03-25T11:10:34;95522.75;;;16.44;54.04
48774;BME280;34576;0.000;0.000;2024-03-25T11:17:47;95506.25;;;16.47;54.30
48774;BME280;34576;0.000;0.000;2024-03-25T11:24:48;95492.91;;;16.52;54.64
48774;BME280;34576;0.000;0.000;2024-03-25T11:31:51;95475.59;;;16.55;54.85
48774;BME280;34576;0.000;0.000;2024-03-25T11:39:05;95472.06;;;16.60;55.45
48774;BME280;34576;0.000;0.000;2024-03-25T11:46:09;95450.22;;;16.63;55.37
48774;BME280;34576;0.000;0.000;2024-03-25T11:53:09;95444.31;;;16.66;55.57
48774;BME280;34576;0.000;0.000;2024-03-25T12:00:10;95418.25;;;16.68;56.03
48774;BME280;34576;0.000;0.000;2024-03-25T12:07:18;95404.84;;;16.73;56.10
48774;BME280;34576;0.000;0.000;2024-03-25T12:14:19;95387.84;;;16.74;56.39
48774;BME280;34576;0.000;0.000;2024-03-25T12:21:19;95373.19;;;16.77;56.60
48774;BME280;34576;0.000;0.000;2024-03-25T12:28:19;95372.59;;;16.80;56.74
48774;BME280;34576;0.000;0.000;2024-03-25T12:35:20;95347.31;;;16.82;56.92
48774;BME280;34576;0.000;0.000;2024-03-25T12:42:20;95323.88;;;16.84;57.07
48774;BME280;34576;0.000;0.000;2024-03-25T12:49:21;95308.75;;;16.85;57.17
48774;BME280;34576;0.000;0.000;2024-03-25T12:56:21;95297.25;;;16.89;57.12
48774;BME280;34576;0.000;0.000;2024-03-25T13:03:21;95291.34;;;16.93;57.44
48774;BME280;34576;0.000;0.000;2024-03-25T13:10:22;95269.31;;;16.92;57.74
48774;BME280;34576;0.000;0.000;2024-03-25T13:17:22;95263.38;;;16.95;57.60
48774;BME280;34576;0.000;0.000;2024-03-25T13:24:22;95265.44;;;16.98;57.96
48774;BME280;34576;0.000;0.000;2024-03-25T13:31:23;95253.44;;;17.01;57.99
48774;BME280;34576;0.000;0.000;2024-03-25T13:38:24;95237.97;;;17.03;58.18
48774;BME280;34576;0.000;0.000;2024-03-25T13:45:25;95228.91;;;17.04;58.26
48774;BME280;34576;0.000;0.000;2024-03-25T13:52:25;95211.88;;;17.05;58.43
48774;BME280;34576;0.000;0.000;2024-03-25T13:59:25;95189.25;;;17.07;58.67
48774;BME280;34576;0.000;0.000;2024-03-25T14:06:26;95178.31;;;17.09;58.47
48774;BME280;34576;0.000;0.000;2024-03-25T14:13:26;95162.06;;;17.11;58.69
48774;BME280;34576;0.000;0.000;2024-03-25T14:20:27;95154.88;;;17.11;58.82
48774;BME280;34576;0.000;0.000;2024-03-25T14:27:27;95141.59;;;17.11;59.05
48774;BME280;34576;0.000;0.000;2024-03-25T14:34:27;95131.44;;;17.13;59.06
48774;BME280;34576;0.000;0.000;2024-03-25T14:41:27;95126.59;;;17.15;58.99
48774;BME280;34576;0.000;0.000;2024-03-25T14:48:38;95117.53;;;17.16;59.16
48774;BME280;34576;0.000;0.000;2024-03-25T14:55:38;95120.50;;;17.15;59.35
48774;BME280;34576;0.000;0.000;2024-03-25T15:02:38;95108.50;;;17.17;59.38
48774;BME280;34576;0.000;0.000;2024-03-25T15:09:39;95097.06;;;17.17;59.30
48774;BME280;34576;0.000;0.000;2024-03-25T15:16:39;95097.88;;;17.17;59.46
48774;BME280;34576;0.000;0.000;2024-03-25T15:23:39;95086.13;;;17.18;59.76
48774;BME280;34576;0.000;0.000;2024-03-25T15:30:40;95076.59;;;17.17;59.85
48774;BME280;34576;0.000;0.000;2024-03-25T15:37:40;95067.06;;;17.16;59.56
48774;BME280;34576;0.000;0.000;2024-03-25T15:44:41;95050.81;;;17.18;59.87
48774;BME280;34576;0.000;0.000;2024-03-25T15:51:41;95043.59;;;17.18;59.85
48774;BME280;34576;0.000;0.000;2024-03-25T15:58:42;95030.63;;;17.17;59.82
48774;BME280;34576;0.000;0.000;2024-03-25T16:05:42;95027.97;;;17.17;60.10
48774;BME280;34576;0.000;0.000;2024-03-25T16:12:42;95015.19;;;17.19;60.22
48774;BME280;34576;0.000;0.000;2024-03-25T16:19:44;95006.72;;;17.17;60.14
48774;BME280;34576;0.000;0.000;2024-03-25T16:26:44;95003.28;;;17.16;60.36
48774;BME280;34576;0.000;0.000;2024-03-25T16:33:44;94987.34;;;17.16;60.21
48774;BME280;34576;0.000;0.000;2024-03-25T16:40:45;94983.75;;;17.12;60.24
48774;BME280;34576;0.000;0.000;2024-03-25T16:47:45;94979.53;;;17.11;60.38
48774;BME280;34576;0.000;0.000;2024-03-25T16:54:45;94971.09;;;17.09;60.33
48774;BME280;34576;0.000;0.000;2024-03-25T17:01:45;94958.91;;;17.08;60.19
48774;BME280;34576;0.000;0.000;2024-03-25T17:08:47;94957.63;;;17.05;60.30
48774;BME280;34576;0.000;0.000;2024-03-25T17:15:47;94959.84;;;17.03;60.42
48774;BME280;34576;0.000;0.000;2024-03-25T17:22:49;94957.19;;;17.03;60.05
48774;BME280;34576;0.000;0.000;2024-03-25T17:29:49;94959.03;;;17.03;60.17
48774;BME280;34576;0.000;0.000;2024-03-25T17:36:49;94945.28;;;17.01;60.09
48774;BME280;34576;0.000;0.000;2024-03-25T17:43:52;94950.59;;;17.01;60.10
48774;BME280;34576;0.000;0.000;2024-03-25T17:50:53;94947.94;;;17.01;59.96
48774;BME280;34576;0.000;0.000;2024-03-25T17:57:53;94941.06;;;17.00;59.97
48774;BME280;34576;0.000;0.000;2024-03-25T18:04:53;94939.34;;;16.95;59.96
48774;BME280;34576;0.000;0.000;2024-03-25T18:11:54;94934.81;;;16.96;59.84
48774;BME280;34576;0.000;0.000;2024-03-25T18:18:54;94926.84;;;16.96;59.82
48774;BME280;34576;0.000;0.000;2024-03-25T18:25:54;94933.25;;;16.95;59.39
48774;BME280;34576;0.000;0.000;2024-03-25T18:32:54;94923.72;;;16.94;59.69
48774;BME280;34576;0.000;0.000;2024-03-25T18:39:55;94914.19;;;16.93;59.47
48774;BME280;34576;0.000;0.000;2024-03-25T18:46:55;94909.19;;;16.91;59.58
48774;BME280;34576;0.000;0.000;2024-03-25T18:53:55;94908.72;;;16.89;59.65
48774;BME280;34576;0.000;0.000;2024-03-25T19:00:55;94901.06;;;16.96;59.38
48774;BME280;34576;0.000;0.000;2024-03-25T19:07:56;94889.66;;;17.04;59.26
48774;BME280;34576;0.000;0.000;2024-03-25T19:14:56;94881.22;;;17.11;59.34
48774;BME280;34576;0.000;0.000;2024-03-25T19:21:57;94873.56;;;17.18;59.22
48774;BME280;34576;0.000;0.000;2024-03-25T19:28:57;94862.00;;;17.23;59.37
48774;BME280;34576;0.000;0.000;2024-03-25T19:35:57;94849.94;;;17.25;59.52
48774;BME280;34576;0.000;0.000;2024-03-25T19:42:58;94835.56;;;17.27;59.55
48774;BME280;34576;0.000;0.000;2024-03-25T19:49:58;94828.06;;;17.29;59.78
48774;BME280;34576;0.000;0.000;2024-03-25T19:56:59;94829.78;;;17.33;59.69
48774;BME280;34576;0.000;0.000;2024-03-25T20:03:59;94817.75;;;17.36;59.72
48774;BME280;34576;0.000;0.000;2024-03-25T20:11:00;94815.09;;;17.36;59.83
48774;BME280;34576;0.000;0.000;2024-03-25T20:18:00;94808.81;;;17.40;59.88
48774;BME280;34576;0.000;0.000;2024-03-25T20:25:00;94805.22;;;17.45;60.06
48774;BME280;34576;0.000;0.000;2024-03-25T20:32:00;94793.00;;;17.44;59.95
48774;BME280;34576;0.000;0.000;2024-03-25T20:39:02;94791.00;;;17.41;60.64
48774;BME280;34576;0.000;0.000;2024-03-25T20:46:02;94789.38;;;17.57;59.64
48774;BME280;34576;0.000;0.000;2024-03-25T20:53:03;94784.41;;;17.47;59.91
48774;BME280;34576;0.000;0.000;2024-03-25T21:00:03;94786.16;;;17.43;60.01
48774;BME280;34576;0.000;0.000;2024-03-25T21:07:09;94780.34;;;17.41;59.74
48774;BME280;34576;0.000;0.000;2024-03-25T21:14:09;94784.09;;;17.40;60.22
48774;BME280;34576;0.000;0.000;2024-03-25T21:21:09;94783.03;;;17.41;60.20
48774;BME280;34576;0.000;0.000;2024-03-25T21:28:09;94797.56;;;17.43;60.02
48774;BME280;34576;0.000;0.000;2024-03-25T21:35:10;94800.66;;;17.46;60.24
48774;BME280;34576;0.000;0.000;2024-03-25T21:42:10;94811.94;;;17.42;60.22
48774;BME280;34576;0.000;0.000;2024-03-25T21:49:10;94816.47;;;17.42;60.28
48774;BME280;34576;0.000;0.000;2024-03-25T21:56:11;94806.94;;;17.41;60.51
48774;BME280;34576;0.000;0.000;2024-03-25T22:03:13;94799.28;;;17.39;60.30
48774;BME280;34576;0.000;0.000;2024-03-25T22:10:13;94795.22;;;17.42;60.29
48774;BME280;34576;0.000;0.000;2024-03-25T22:17:14;94770.53;;;17.41;60.34
48774;BME280;34576;0.000;0.000;2024-03-25T22:24:14;94761.00;;;17.40;60.34
48774;BME280;34576;0.000;0.000;2024-03-25T22:31:14;94745.03;;;17.40;60.26
48774;BME280;34576;0.000;0.000;2024-03-25T22:38:14;94737.84;;;17.41;60.51
48774;BME280;34576;0.000;0.000;2024-03-25T22:45:15;94733.31;;;17.41;60.16
48774;BME280;34576;0.000;0.000;2024-03-25T22:52:15;94731.44;;;17.42;60.10
48774;BME280;34576;0.000;0.000;2024-03-25T22:59:15;94733.00;;;17.43;60.19
48774;BME280;34576;0.000;0.000;2024-03-25T23:06:15;94730.66;;;17.41;60.01
48774;BME280;34576;0.000;0.000;2024-03-25T23:13:16;94717.81;;;17.43;59.97
48774;BME280;34576;0.000;0.000;2024-03-25T23:20:16;94720.94;;;17.46;59.87
48774;BME280;34576;0.000;0.000;2024-03-25T23:27:16;94711.75;;;17.43;60.00
48774;BME280;34576;0.000;0.000;2024-03-25T23:34:17;94716.41;;;17.46;60.32
48774;BME280;34576;0.000;0.000;2024-03-25T23:41:17;94721.72;;;17.46;60.29
48774;BME280;34576;0.000;0.000;2024-03-25T23:48:17;94733.44;;;17.45;60.22
48774;BME280;34576;0.000;0.000;2024-03-25T23:55:17;94736.09;;;17.45;60.25
